Time;durP1;ratioP1;P1;durP2;ratioP2;P2;SDS_P1;SDS_P2;PMS_P1;PMS_P2;Temp;Humidity;BMP_temperature;BMP_pressure;BME280_temperature;BME280_humidity;BME280_pressure;Samples;Min_cycle;Max_cycle;Signal;HPM_P1;HPM_P2
2022/05/01 00:02:19;;;;;;;7.60;5.83;;;;;;;;;;5091466;28;20226;-55
2022/05/01 00:04:45;;;;;;;8.30;6.43;;;;;;;;;;5091601;28;20233;-54
2022/05/01 00:07:12;;;;;;;6.33;5.73;;;;;;;;;;5091443;28;20201;-54
2022/05/01 00:09:39;;;;;;;7.00;6.23;;;;;;;;;;5090985;28;20226;-54
2022/05/01 00:12:07;;;;;;;6.70;6.00;;;;;;;;;;5092445;28;20194;-53
2022/05/01 00:14:33;;;;;;;6.53;5.60;;;;;;;;;;5094749;28;20234;-54
2022/05/01 00:16:59;;;;;;;8.07;6.33;;;;;;;;;;5094903;28;20231;-54
2022/05/01 00:19:25;;;;;;;7.47;6.70;;;;;;;;;;5094815;28;20202;-53
2022/05/01 00:21:51;;;;;;;8.20;7.00;;;;;;;;;;5094755;28;20183;-54
2022/05/01 00:24:18;;;;;;;9.83;7.10;;;;;;;;;;5094674;28;20688;-55
2022/05/01 00:26:44;;;;;;;8.77;5.87;;;;;;;;;;5094835;28;20199;-53
2022/05/01 00:29:10;;;;;;;7.77;6.03;;;;;;;;;;5094793;28;20202;-53
2022/05/01 00:31:36;;;;;;;8.63;6.50;;;;;;;;;;5094364;28;20199;-53
2022/05/01 00:36:47;;;;;;;9.50;7.23;;;;;;;;;;5094692;28;20636;-53
2022/05/01 00:39:13;;;;;;;7.47;6.70;;;;;;;;;;5094628;28;20660;-53
2022/05/01 00:41:41;;;;;;;10.33;7.17;;;;;;;;;;5094428;28;20203;-53
2022/05/01 00:44:11;;;;;;;9.07;6.77;;;;;;;;;;5094478;28;20279;-53
2022/05/01 00:46:38;;;;;;;7.77;6.93;;;;;;;;;;5094239;28;20256;-54
2022/05/01 00:49:04;;;;;;;8.57;6.60;;;;;;;;;;5094389;28;20195;-54
2022/05/01 00:51:32;;;;;;;7.70;6.90;;;;;;;;;;5094214;28;20242;-53
2022/05/01 00:53:59;;;;;;;7.90;6.70;;;;;;;;;;5094337;28;20301;-54
2022/05/01 00:56:25;;;;;;;7.70;6.90;;;;;;;;;;5093918;28;20215;-53
2022/05/01 00:58:53;;;;;;;8.80;7.00;;;;;;;;;;5094070;28;20198;-54
2022/05/01 01:01:19;;;;;;;9.43;7.27;;;;;;;;;;5093730;28;20241;-54
2022/05/01 01:03:45;;;;;;;8.97;6.60;;;;;;;;;;5094124;28;20229;-54
2022/05/01 01:06:11;;;;;;;8.27;7.40;;;;;;;;;;5093877;28;20202;-53
2022/05/01 01:08:37;;;;;;;10.73;6.60;;;;;;;;;;5093723;28;20202;-53
2022/05/01 01:11:04;;;;;;;9.50;7.00;;;;;;;;;;5093730;28;20191;-54
2022/05/01 01:13:30;;;;;;;11.73;6.87;;;;;;;;;;5093432;28;20553;-54
2022/05/01 01:15:58;;;;;;;7.47;6.33;;;;;;;;;;5093257;28;20318;-53
2022/05/01 01:18:24;;;;;;;7.43;6.53;;;;;;;;;;5093452;28;20679;-54
2022/05/01 01:20:53;;;;;;;8.87;7.30;;;;;;;;;;5093372;28;20545;-53
2022/05/01 01:23:19;;;;;;;7.10;6.40;;;;;;;;;;5092636;28;20203;-53
2022/05/01 01:25:46;;;;;;;9.80;6.97;;;;;;;;;;5093606;28;20218;-53
2022/05/01 01:28:12;;;;;;;8.97;6.27;;;;;;;;;;5093417;28;20202;-53
2022/05/01 01:33:25;;;;;;;9.10;6.47;;;;;;;;;;5093199;28;20715;-52
2022/05/01 01:35:52;;;;;;;9.40;6.17;;;;;;;;;;5093244;28;20305;-57
2022/05/01 01:38:19;;;;;;;8.73;6.50;;;;;;;;;;5093193;28;20214;-53
2022/05/01 01:40:46;;;;;;;8.30;6.97;;;;;;;;;;5093695;28;20198;-53
2022/05/01 01:43:13;;;;;;;8.93;6.40;;;;;;;;;;5093298;28;20207;-53
2022/05/01 01:45:39;;;;;;;8.43;5.87;;;;;;;;;;5092921;28;20206;-52
2022/05/01 01:48:11;;;;;;;8.00;6.80;;;;;;;;;;5093118;28;20252;-53
2022/05/01 01:50:37;;;;;;;6.83;5.97;;;;;;;;;;5092985;28;20245;-52
2022/05/01 01:53:05;;;;;;;8.93;6.37;;;;;;;;;;5093065;28;20194;-52
2022/05/01 01:55:31;;;;;;;10.30;6.50;;;;;;;;;;5092889;28;20244;-52
2022/05/01 01:57:57;;;;;;;8.07;6.23;;;;;;;;;;5092933;28;20895;-52
2022/05/01 02:00:24;;;;;;;9.97;6.20;;;;;;;;;;5092862;28;20233;-52
2022/05/01 02:02:50;;;;;;;8.97;6.27;;;;;;;;;;5092775;28;20286;-52
2022/05/01 02:05:16;;;;;;;9.20;6.00;;;;;;;;;;5092658;28;20206;-52
2022/05/01 02:07:42;;;;;;;8.60;6.30;;;;;;;;;;5092640;28;20198;-53
2022/05/01 02:10:09;;;;;;;8.00;6.80;;;;;;;;;;5092534;28;20268;-52
2022/05/01 02:12:35;;;;;;;9.03;6.47;;;;;;;;;;5092366;28;20676;-53
2022/05/01 02:15:01;;;;;;;9.80;6.20;;;;;;;;;;5092287;28;20262;-53
2022/05/01 02:17:27;;;;;;;7.57;5.67;;;;;;;;;;5092397;28;20260;-53
2022/05/01 02:19:53;;;;;;;8.77;6.13;;;;;;;;;;5092379;28;20203;-53
2022/05/01 02:22:21;;;;;;;7.40;5.90;;;;;;;;;;5092321;28;20643;-53
2022/05/01 02:24:47;;;;;;;8.13;6.17;;;;;;;;;;5092404;28;20219;-54
2022/05/01 02:27:15;;;;;;;7.17;5.67;;;;;;;;;;5092406;28;20614;-54
2022/05/01 02:29:42;;;;;;;7.43;5.63;;;;;;;;;;5092217;28;20210;-52
2022/05/01 02:32:08;;;;;;;8.90;6.10;;;;;;;;;;5092149;28;20232;-52
2022/05/01 02:34:34;;;;;;;9.43;6.30;;;;;;;;;;5091914;28;20657;-52
2022/05/01 02:37:00;;;;;;;7.87;5.63;;;;;;;;;;5092232;28;20226;-52
2022/05/01 02:39:26;;;;;;;8.50;6.00;;;;;;;;;;5092082;28;20183;-52
2022/05/01 02:41:52;;;;;;;6.60;5.97;;;;;;;;;;5092134;28;20293;-52
2022/05/01 02:44:19;;;;;;;6.83;6.03;;;;;;;;;;5092006;28;20840;-54
2022/05/01 02:46:46;;;;;;;9.60;6.63;;;;;;;;;;5092227;28;20297;-54
2022/05/01 02:49:12;;;;;;;9.43;6.70;;;;;;;;;;5092433;28;20553;-54
2022/05/01 02:51:38;;;;;;;9.07;6.07;;;;;;;;;;5092047;28;20593;-54
2022/05/01 02:54:04;;;;;;;6.97;5.60;;;;;;;;;;5092117;28;20220;-54
2022/05/01 02:56:30;;;;;;;7.13;5.60;;;;;;;;;;5092212;28;20338;-54
2022/05/01 02:58:57;;;;;;;6.10;5.50;;;;;;;;;;5092148;28;20206;-53
2022/05/01 03:01:24;;;;;;;7.63;5.17;;;;;;;;;;5091824;28;20226;-54
2022/05/01 03:03:50;;;;;;;6.73;5.40;;;;;;;;;;5091861;28;20657;-54
2022/05/01 03:06:17;;;;;;;6.77;5.30;;;;;;;;;;5091910;28;20203;-54
2022/05/01 03:08:44;;;;;;;7.00;5.67;;;;;;;;;;5091897;28;20201;-54
2022/05/01 03:11:10;;;;;;;7.53;5.67;;;;;;;;;;5091930;28;20215;-54
2022/05/01 03:13:36;;;;;;;8.10;5.80;;;;;;;;;;5091749;28;20234;-53
2022/05/01 03:16:03;;;;;;;8.73;5.70;;;;;;;;;;5091457;28;20235;-53
2022/05/01 03:24:00;;;;;;;6.57;5.07;;;;;;;;;;5092069;28;20724;-53
2022/05/01 03:26:25;;;;;;;12.57;5.57;;;;;;;;;;5091636;28;20682;-53
2022/05/01 03:28:51;;;;;;;7.17;5.30;;;;;;;;;;5091715;28;20419;-53
2022/05/01 03:31:18;;;;;;;7.40;5.33;;;;;;;;;;5091212;28;20581;-53
2022/05/01 03:33:45;;;;;;;9.00;5.83;;;;;;;;;;5091932;28;20230;-53
2022/05/01 03:36:11;;;;;;;11.07;5.90;;;;;;;;;;5091510;28;20250;-53
2022/05/01 03:38:38;;;;;;;7.37;5.67;;;;;;;;;;5091588;28;20214;-53
2022/05/01 03:41:05;;;;;;;8.43;6.20;;;;;;;;;;5091566;28;20659;-53
2022/05/01 03:43:32;;;;;;;6.63;5.40;;;;;;;;;;5091528;28;20222;-53
2022/05/01 03:45:58;;;;;;;5.80;5.07;;;;;;;;;;5091700;28;20199;-53
2022/05/01 03:48:24;;;;;;;6.23;5.07;;;;;;;;;;5094675;28;20645;-53
2022/05/01 03:50:52;;;;;;;13.27;6.10;;;;;;;;;;5095421;28;20226;-53
2022/05/01 03:53:18;;;;;;;8.77;5.77;;;;;;;;;;5095309;28;20205;-53
2022/05/01 03:55:44;;;;;;;9.33;5.87;;;;;;;;;;5095293;28;20294;-53
2022/05/01 03:58:10;;;;;;;7.87;5.20;;;;;;;;;;5095171;28;20191;-53
2022/05/01 04:00:36;;;;;;;7.47;5.70;;;;;;;;;;5095102;28;20222;-53
2022/05/01 04:03:02;;;;;;;7.40;5.53;;;;;;;;;;5095183;28;20719;-53
2022/05/01 04:05:28;;;;;;;8.03;5.70;;;;;;;;;;5095099;28;20238;-52
2022/05/01 04:07:55;;;;;;;7.23;5.80;;;;;;;;;;5095305;28;20217;-53
2022/05/01 04:10:21;;;;;;;8.33;5.67;;;;;;;;;;5094942;28;20602;-53
2022/05/01 04:12:47;;;;;;;8.10;5.50;;;;;;;;;;5094967;28;20203;-53
2022/05/01 04:15:17;;;;;;;7.03;5.93;;;;;;;;;;5094675;28;20817;-53
2022/05/01 04:17:43;;;;;;;7.03;5.33;;;;;;;;;;5094589;28;20786;-53
2022/05/01 04:20:10;;;;;;;9.03;5.53;;;;;;;;;;5094730;28;20203;-53
2022/05/01 04:22:37;;;;;;;7.30;5.97;;;;;;;;;;5094757;28;20199;-53
2022/05/01 04:25:05;;;;;;;9.07;6.30;;;;;;;;;;5094689;28;20225;-53
2022/05/01 04:27:31;;;;;;;11.17;6.70;;;;;;;;;;5094586;28;20195;-53
2022/05/01 04:29:57;;;;;;;8.03;5.77;;;;;;;;;;5094627;28;20206;-53
2022/05/01 04:32:23;;;;;;;6.93;6.03;;;;;;;;;;5094470;28;20558;-53
2022/05/01 04:34:49;;;;;;;10.97;5.97;;;;;;;;;;5094417;28;20652;-53
2022/05/01 04:37:15;;;;;;;8.60;5.70;;;;;;;;;;5094601;28;20248;-53
2022/05/01 04:39:41;;;;;;;10.70;6.23;;;;;;;;;;5094467;28;20211;-53
2022/05/01 04:42:08;;;;;;;9.97;5.90;;;;;;;;;;5094634;28;20593;-54
2022/05/01 04:44:34;;;;;;;5.70;5.20;;;;;;;;;;5094193;28;20207;-54
2022/05/01 04:47:00;;;;;;;6.07;5.47;;;;;;;;;;5094492;28;20195;-53
2022/05/01 04:49:26;;;;;;;8.83;5.60;;;;;;;;;;5094260;28;20198;-54
2022/05/01 04:51:52;;;;;;;6.37;5.73;;;;;;;;;;5094332;28;20198;-54
2022/05/01 04:54:18;;;;;;;9.53;6.03;;;;;;;;;;5093905;28;20217;-54
2022/05/01 04:59:30;;;;;;;12.10;5.93;;;;;;;;;;5093946;28;20201;-54
2022/05/01 05:01:57;;;;;;;8.23;5.53;;;;;;;;;;5094005;28;20203;-54
2022/05/01 05:04:23;;;;;;;6.80;5.90;;;;;;;;;;5094134;28;20229;-54
2022/05/01 05:06:52;;;;;;;9.10;6.30;;;;;;;;;;5093950;28;20661;-54
2022/05/01 05:12:04;;;;;;;10.53;6.27;;;;;;;;;;5093705;28;20256;-53
2022/05/01 05:14:31;;;;;;;7.40;5.83;;;;;;;;;;5093147;28;20235;-53
2022/05/01 05:16:58;;;;;;;9.30;6.60;;;;;;;;;;5093729;28;20246;-53
2022/05/01 05:19:24;;;;;;;7.10;5.87;;;;;;;;;;5093308;28;20195;-54
2022/05/01 05:21:49;;;;;;;10.10;6.13;;;;;;;;;;5093641;28;20201;-54
2022/05/01 05:24:15;;;;;;;6.47;5.87;;;;;;;;;;5093473;28;20699;-54
2022/05/01 05:26:41;;;;;;;11.50;6.23;;;;;;;;;;5093446;28;20198;-55
2022/05/01 05:29:08;;;;;;;7.80;6.47;;;;;;;;;;5093247;28;20203;-55
2022/05/01 05:31:36;;;;;;;6.33;5.63;;;;;;;;;;5093085;28;20195;-54
2022/05/01 05:34:02;;;;;;;7.13;5.57;;;;;;;;;;5093468;28;20304;-53
2022/05/01 05:36:28;;;;;;;6.10;5.50;;;;;;;;;;5093310;28;20297;-53
2022/05/01 05:38:54;;;;;;;7.33;6.23;;;;;;;;;;5093251;28;20285;-53
2022/05/01 05:41:20;;;;;;;8.50;5.80;;;;;;;;;;5093514;28;20206;-53
2022/05/01 05:43:46;;;;;;;13.80;6.33;;;;;;;;;;5093362;28;20230;-54
2022/05/01 05:46:12;;;;;;;7.73;6.33;;;;;;;;;;5093076;28;20298;-54
2022/05/01 05:48:39;;;;;;;8.90;6.43;;;;;;;;;;5092952;28;20245;-53
2022/05/01 05:51:05;;;;;;;9.50;6.00;;;;;;;;;;5093006;28;20695;-53
2022/05/01 05:53:31;;;;;;;7.57;5.70;;;;;;;;;;5092883;28;20191;-52
2022/05/01 05:55:57;;;;;;;7.83;6.37;;;;;;;;;;5092522;28;20198;-53
2022/05/01 05:58:23;;;;;;;6.90;6.17;;;;;;;;;;5092957;28;20205;-53
2022/05/01 06:00:49;;;;;;;7.77;6.17;;;;;;;;;;5092736;28;20195;-53
2022/05/01 06:03:15;;;;;;;8.20;5.97;;;;;;;;;;5092623;28;20680;-53
2022/05/01 06:05:42;;;;;;;6.80;5.87;;;;;;;;;;5092447;28;20285;-53
2022/05/01 06:08:09;;;;;;;8.53;6.10;;;;;;;;;;5092701;28;20345;-53
2022/05/01 06:10:35;;;;;;;8.43;6.37;;;;;;;;;;5092102;28;20199;-53
2022/05/01 06:13:01;;;;;;;7.60;5.80;;;;;;;;;;5092715;28;20206;-53
2022/05/01 06:15:27;;;;;;;8.70;5.83;;;;;;;;;;5091943;28;20234;-53
2022/05/01 06:17:53;;;;;;;7.33;5.90;;;;;;;;;;5092340;28;20226;-53
2022/05/01 06:20:20;;;;;;;6.70;6.00;;;;;;;;;;5092234;28;20206;-53
2022/05/01 06:22:49;;;;;;;8.13;6.13;;;;;;;;;;5092050;28;20660;-55
2022/05/01 06:25:15;;;;;;;9.07;6.13;;;;;;;;;;5092206;28;20239;-53
2022/05/01 06:27:41;;;;;;;6.90;5.00;;;;;;;;;;5092053;28;20247;-53
2022/05/01 06:30:07;;;;;;;9.33;6.00;;;;;;;;;;5092058;28;20626;-55
2022/05/01 06:32:33;;;;;;;8.40;5.77;;;;;;;;;;5092066;28;20248;-52
2022/05/01 06:34:59;;;;;;;11.00;6.23;;;;;;;;;;5092405;28;20205;-53
2022/05/01 06:37:25;;;;;;;6.27;5.50;;;;;;;;;;5092037;28;20222;-54
2022/05/01 06:39:53;;;;;;;9.27;5.53;;;;;;;;;;5092040;28;20203;-53
2022/05/01 06:42:19;;;;;;;7.20;5.13;;;;;;;;;;5092147;28;20206;-53
2022/05/01 06:44:45;;;;;;;8.37;5.87;;;;;;;;;;5091954;28;20199;-53
2022/05/01 06:47:13;;;;;;;5.90;5.30;;;;;;;;;;5092372;28;20244;-52
2022/05/01 06:49:39;;;;;;;9.10;5.67;;;;;;;;;;5091952;28;20203;-53
2022/05/01 06:52:05;;;;;;;7.67;5.00;;;;;;;;;;5092057;28;20194;-52
2022/05/01 06:54:31;;;;;;;7.03;5.33;;;;;;;;;;5091914;28;20203;-55
2022/05/01 06:56:58;;;;;;;6.43;5.00;;;;;;;;;;5091825;28;20291;-55
2022/05/01 06:59:24;;;;;;;5.87;4.93;;;;;;;;;;5091617;28;20199;-56
2022/05/01 07:01:50;;;;;;;7.03;5.60;;;;;;;;;;5091934;28;20198;-54
2022/05/01 07:04:16;;;;;;;9.23;5.57;;;;;;;;;;5091875;28;20203;-54
2022/05/01 07:06:43;;;;;;;8.33;4.93;;;;;;;;;;5091667;28;20195;-54
2022/05/01 07:09:09;;;;;;;9.20;5.50;;;;;;;;;;5092110;28;20199;-54
2022/05/01 07:11:35;;;;;;;7.97;5.40;;;;;;;;;;5091949;28;20687;-55
2022/05/01 07:14:02;;;;;;;6.37;4.43;;;;;;;;;;5091875;28;20199;-54
2022/05/01 07:16:28;;;;;;;10.97;5.37;;;;;;;;;;5091651;28;20214;-56
2022/05/01 07:18:54;;;;;;;5.57;4.63;;;;;;;;;;5091950;28;20744;-54
2022/05/01 07:21:20;;;;;;;8.17;5.23;;;;;;;;;;5091947;28;20203;-54
2022/05/01 07:23:46;;;;;;;8.33;4.83;;;;;;;;;;5096099;28;20288;-55
2022/05/01 07:26:12;;;;;;;6.07;5.07;;;;;;;;;;5096097;28;20198;-53
2022/05/01 07:28:39;;;;;;;5.63;4.50;;;;;;;;;;5095924;28;20214;-54
2022/05/01 07:31:07;;;;;;;7.17;4.90;;;;;;;;;;5095672;28;20613;-54
2022/05/01 07:33:33;;;;;;;6.30;4.00;;;;;;;;;;5095867;28;20203;-54
2022/05/01 07:35:59;;;;;;;7.23;4.80;;;;;;;;;;5095854;28;20231;-54
2022/05/01 07:38:25;;;;;;;5.13;4.20;;;;;;;;;;5095531;28;20205;-55
2022/05/01 07:40:51;;;;;;;5.53;3.83;;;;;;;;;;5095703;28;20194;-55
2022/05/01 07:43:17;;;;;;;8.87;3.63;;;;;;;;;;5095557;28;20218;-54
2022/05/01 07:45:44;;;;;;;4.10;3.67;;;;;;;;;;5095653;28;20202;-55
2022/05/01 07:48:11;;;;;;;5.73;4.07;;;;;;;;;;5095399;28;20252;-54
2022/05/01 07:50:37;;;;;;;7.17;4.17;;;;;;;;;;5095405;28;20198;-54
2022/05/01 07:53:06;;;;;;;5.40;3.43;;;;;;;;;;5095413;28;20289;-54
2022/05/01 07:55:32;;;;;;;4.83;3.53;;;;;;;;;;5095408;28;20191;-55
2022/05/01 07:57:58;;;;;;;6.27;3.73;;;;;;;;;;5095538;28;20284;-54
2022/05/01 08:00:24;;;;;;;4.37;2.67;;;;;;;;;;5095317;28;20661;-55
2022/05/01 08:05:36;;;;;;;4.07;3.10;;;;;;;;;;5095280;28;20225;-54
2022/05/01 08:08:02;;;;;;;3.57;3.10;;;;;;;;;;5095289;28;20300;-54
2022/05/01 08:10:28;;;;;;;4.10;2.70;;;;;;;;;;5095199;28;20278;-55
2022/05/01 08:12:57;;;;;;;3.50;2.37;;;;;;;;;;5095316;28;20613;-55
2022/05/01 08:15:23;;;;;;;3.10;2.40;;;;;;;;;;5094066;28;20243;-58
2022/05/01 08:17:49;;;;;;;3.03;2.60;;;;;;;;;;5093844;28;20269;-57
2022/05/01 08:23:09;;;;;;;5.47;2.40;;;;;;;;;;5093892;28;20291;-53
2022/05/01 08:25:36;;;;;;;3.47;2.73;;;;;;;;;;5093231;28;20236;-54
2022/05/01 08:28:11;;;;;;;3.90;2.63;;;;;;;;;;5093586;28;20194;-56
2022/05/01 08:30:37;;;;;;;4.43;3.27;;;;;;;;;;5089582;28;20218;-55
2022/05/01 08:33:06;;;;;;;6.00;3.73;;;;;;;;;;5091346;28;20601;-55
2022/05/01 08:35:32;;;;;;;2.40;2.20;;;;;;;;;;5092565;28;20302;-54
2022/05/01 08:37:58;;;;;;;2.53;2.10;;;;;;;;;;5092646;28;20346;-55
2022/05/01 08:40:26;;;;;;;3.03;1.83;;;;;;;;;;5092594;28;20209;-56
2022/05/01 08:42:52;;;;;;;2.30;1.90;;;;;;;;;;5092410;28;20200;-55
2022/05/01 08:45:20;;;;;;;3.67;2.03;;;;;;;;;;5092766;28;20201;-55
2022/05/01 08:47:50;;;;;;;2.97;2.10;;;;;;;;;;5092934;28;20191;-56
2022/05/01 08:50:18;;;;;;;2.67;2.00;;;;;;;;;;5093067;28;20200;-55
2022/05/01 08:52:44;;;;;;;4.30;2.47;;;;;;;;;;5092903;28;20200;-55
2022/05/01 08:55:12;;;;;;;3.37;2.40;;;;;;;;;;5092803;28;20242;-54
2022/05/01 08:57:40;;;;;;;3.90;2.50;;;;;;;;;;5092649;28;20275;-55
2022/05/01 09:00:07;;;;;;;3.07;2.37;;;;;;;;;;5092711;28;20228;-54
2022/05/01 09:02:34;;;;;;;4.40;2.67;;;;;;;;;;5092708;28;20618;-55
2022/05/01 09:05:00;;;;;;;3.90;2.87;;;;;;;;;;5092793;28;20573;-54
2022/05/01 09:07:26;;;;;;;6.10;2.90;;;;;;;;;;5092527;28;20277;-55
2022/05/01 09:09:52;;;;;;;3.17;2.40;;;;;;;;;;5092675;28;20195;-54
2022/05/01 09:15:05;;;;;;;4.60;2.67;;;;;;;;;;5056460;28;1031266;-54
2022/05/01 09:17:31;;;;;;;3.07;2.47;;;;;;;;;;5093398;28;20529;-54
2022/05/01 09:20:05;;;;;;;3.40;2.43;;;;;;;;;;5092240;28;20612;-56
2022/05/01 09:22:46;;;;;;;3.00;2.40;;;;;;;;;;5093365;28;20648;-56
2022/05/01 09:25:15;;;;;;;2.77;2.43;;;;;;;;;;5093295;28;20222;-55
2022/05/01 09:27:41;;;;;;;3.57;2.77;;;;;;;;;;5093145;28;20197;-55
2022/05/01 09:30:14;;;;;;;5.60;2.97;;;;;;;;;;5093090;28;20294;-55
2022/05/01 09:32:41;;;;;;;3.20;2.90;;;;;;;;;;5093200;28;20203;-55
2022/05/01 09:35:11;;;;;;;3.87;2.50;;;;;;;;;;5093285;28;20202;-54
2022/05/01 09:37:37;;;;;;;2.50;2.27;;;;;;;;;;5093009;28;20226;-55
2022/05/01 09:40:04;;;;;;;6.63;3.00;;;;;;;;;;5093116;28;20702;-56
2022/05/01 09:42:34;;;;;;;3.23;2.87;;;;;;;;;;5093172;28;20194;-55
2022/05/01 09:45:05;;;;;;;3.27;2.53;;;;;;;;;;5092275;28;20201;-56
2022/05/01 09:47:35;;;;;;;4.30;2.43;;;;;;;;;;5093132;28;20191;-54
2022/05/01 09:50:04;;;;;;;3.63;2.20;;;;;;;;;;5092898;28;20230;-55
2022/05/01 09:52:45;;;;;;;5.10;2.43;;;;;;;;;;5092725;28;20723;-55
2022/05/01 09:55:11;;;;;;;4.10;2.33;;;;;;;;;;5092531;28;20380;-56
2022/05/01 09:57:37;;;;;;;2.23;1.90;;;;;;;;;;5092552;28;20343;-54
2022/05/01 10:00:03;;;;;;;2.70;2.20;;;;;;;;;;5092600;28;20202;-54
2022/05/01 10:02:30;;;;;;;3.53;2.00;;;;;;;;;;5092671;28;20561;-55
2022/05/01 10:05:06;;;;;;;2.57;2.10;;;;;;;;;;5092949;28;20248;-55
2022/05/01 10:07:35;;;;;;;2.37;2.10;;;;;;;;;;5092566;28;20194;-55
2022/05/01 10:10:01;;;;;;;2.77;2.10;;;;;;;;;;5092656;28;20210;-55
2022/05/01 10:12:28;;;;;;;2.77;2.20;;;;;;;;;;5092549;28;20600;-55
2022/05/01 10:14:55;;;;;;;4.10;2.50;;;;;;;;;;5092285;28;20241;-55
2022/05/01 10:17:21;;;;;;;4.00;2.33;;;;;;;;;;5092350;28;20229;-55
2022/05/01 10:19:48;;;;;;;3.23;2.43;;;;;;;;;;5092474;28;20274;-55
2022/05/01 10:22:17;;;;;;;5.00;2.50;;;;;;;;;;5092558;28;20252;-54
2022/05/01 10:24:44;;;;;;;4.83;2.47;;;;;;;;;;5092313;28;20685;-55
2022/05/01 10:27:14;;;;;;;3.60;2.20;;;;;;;;;;5092334;28;20199;-55
2022/05/01 10:32:20;;;;;;;2.53;2.27;;;;;;;;;;5091924;28;20282;-55
2022/05/01 10:32:40;;;;;;;4.23;2.33;;;;;;;;;;5091958;28;20225;-54
2022/05/01 10:35:26;;;;;;;2.33;2.10;;;;;;;;;;5092109;28;20564;-54
2022/05/01 10:38:07;;;;;;;2.97;2.03;;;;;;;;;;5091900;28;20253;-55
2022/05/01 10:40:33;;;;;;;2.37;2.00;;;;;;;;;;5091808;28;20649;-54
2022/05/01 10:43:19;;;;;;;4.60;2.50;;;;;;;;;;5092017;28;20289;-55
2022/05/01 10:45:45;;;;;;;2.07;1.77;;;;;;;;;;5091630;28;20240;-54
2022/05/01 10:48:12;;;;;;;4.67;2.20;;;;;;;;;;5091906;28;20263;-54
2022/05/01 10:50:39;;;;;;;3.00;2.67;;;;;;;;;;5091879;28;20942;-55
2022/05/01 10:53:17;;;;;;;3.13;2.60;;;;;;;;;;5091853;28;20213;-55
2022/05/01 10:55:44;;;;;;;2.27;1.97;;;;;;;;;;5091899;28;20753;-56
2022/05/01 10:58:20;;;;;;;2.10;1.90;;;;;;;;;;5091670;28;20269;-54
2022/05/01 11:00:46;;;;;;;3.30;2.03;;;;;;;;;;5091686;28;20202;-54
2022/05/01 11:03:22;;;;;;;2.13;1.97;;;;;;;;;;5091872;28;20227;-54
2022/05/01 11:05:52;;;;;;;2.53;2.20;;;;;;;;;;5091542;28;20277;-55
2022/05/01 11:08:20;;;;;;;3.17;1.97;;;;;;;;;;5091669;28;20220;-55
2022/05/01 11:10:47;;;;;;;3.03;1.93;;;;;;;;;;5091776;28;20202;-54
2022/05/01 11:13:14;;;;;;;3.00;2.00;;;;;;;;;;5091767;28;20202;-55
2022/05/01 11:15:45;;;;;;;2.00;1.80;;;;;;;;;;5091209;28;20249;-55
2022/05/01 11:18:12;;;;;;;4.00;1.80;;;;;;;;;;5091568;28;20210;-56
2022/05/01 11:20:39;;;;;;;3.20;2.03;;;;;;;;;;5091407;28;20243;-55
2022/05/01 11:23:19;;;;;;;3.37;1.93;;;;;;;;;;5091623;28;20232;-55
2022/05/01 11:25:48;;;;;;;2.27;2.07;;;;;;;;;;5078501;28;20222;-55
2022/05/01 11:28:29;;;;;;;3.50;2.20;;;;;;;;;;5091834;28;20291;-55
2022/05/01 11:30:55;;;;;;;2.83;2.30;;;;;;;;;;5091199;28;20577;-56
2022/05/01 11:33:21;;;;;;;4.37;2.03;;;;;;;;;;5091345;28;20207;-55
2022/05/01 11:35:54;;;;;;;2.07;1.70;;;;;;;;;;5091272;28;20205;-55
2022/05/01 11:38:21;;;;;;;2.50;2.13;;;;;;;;;;5091140;28;20230;-55
2022/05/01 11:40:55;;;;;;;2.77;1.97;;;;;;;;;;5091209;28;20198;-55
2022/05/01 11:43:21;;;;;;;2.80;2.23;;;;;;;;;;5091332;28;20417;-55
2022/05/01 11:45:47;;;;;;;2.40;2.20;;;;;;;;;;5091273;28;20205;-55
2022/05/01 11:48:14;;;;;;;3.40;2.40;;;;;;;;;;5091388;28;20201;-54
2022/05/01 11:50:40;;;;;;;2.70;2.37;;;;;;;;;;5091072;28;20278;-55
2022/05/01 11:53:15;;;;;;;5.00;4.17;;;;;;;;;;5091029;28;20372;-55
2022/05/01 12:04:19;;;;;;;4.60;2.83;;;;;;;;;;5091472;28;20316;-55
2022/05/01 12:06:45;;;;;;;2.70;1.80;;;;;;;;;;5091162;28;20201;-55
2022/05/01 12:09:11;;;;;;;6.17;2.33;;;;;;;;;;5094250;28;20198;-55
2022/05/01 12:11:37;;;;;;;3.10;2.50;;;;;;;;;;5094597;28;20206;-55
2022/05/01 12:14:06;;;;;;;5.07;2.30;;;;;;;;;;5094679;28;20204;-55
2022/05/01 12:16:32;;;;;;;2.57;1.90;;;;;;;;;;5094318;28;20241;-55
2022/05/01 12:18:58;;;;;;;3.20;2.37;;;;;;;;;;5094866;28;20205;-55
2022/05/01 12:21:31;;;;;;;2.20;2.00;;;;;;;;;;5094536;28;20198;-55
2022/05/01 12:24:01;;;;;;;2.60;2.30;;;;;;;;;;5094528;28;20264;-54
2022/05/01 12:26:27;;;;;;;3.10;1.70;;;;;;;;;;5094477;28;20205;-54
2022/05/01 12:28:54;;;;;;;2.00;1.80;;;;;;;;;;5094410;28;20205;-55
2022/05/01 12:31:21;;;;;;;2.47;1.83;;;;;;;;;;5094273;28;20209;-54
2022/05/01 12:33:52;;;;;;;3.17;2.00;;;;;;;;;;5093983;28;20194;-54
2022/05/01 12:36:23;;;;;;;2.57;1.90;;;;;;;;;;5094204;28;20195;-54
2022/05/01 12:39:00;;;;;;;4.17;2.20;;;;;;;;;;5094048;28;20229;-55
2022/05/01 12:44:11;;;;;;;4.60;2.10;;;;;;;;;;5093983;28;20200;-54
2022/05/01 12:46:39;;;;;;;3.03;1.87;;;;;;;;;;5093940;28;20277;-55
2022/05/01 12:49:06;;;;;;;2.60;2.10;;;;;;;;;;5094056;28;20215;-55
2022/05/01 12:51:35;;;;;;;2.53;1.90;;;;;;;;;;5093970;28;20487;-54
2022/05/01 12:54:08;;;;;;;2.83;2.00;;;;;;;;;;5094147;28;20604;-55
2022/05/01 12:56:35;;;;;;;3.70;2.00;;;;;;;;;;5093782;28;20277;-56
2022/05/01 12:59:21;;;;;;;3.50;2.10;;;;;;;;;;5094121;28;20206;-54
2022/05/01 13:01:48;;;;;;;2.37;1.80;;;;;;;;;;5093811;28;20294;-55
2022/05/01 13:04:21;;;;;;;2.23;1.90;;;;;;;;;;5093821;28;20672;-54
2022/05/01 13:06:47;;;;;;;2.40;1.90;;;;;;;;;;5093869;28;20195;-55
2022/05/01 13:09:16;;;;;;;4.03;2.20;;;;;;;;;;5093813;28;20195;-55
2022/05/01 13:11:58;;;;;;;3.17;2.33;;;;;;;;;;5093637;28;20225;-54
2022/05/01 13:14:30;;;;;;;3.07;2.20;;;;;;;;;;5093259;28;20252;-54
2022/05/01 13:17:06;;;;;;;2.90;1.90;;;;;;;;;;5093607;28;20230;-55
2022/05/01 13:19:32;;;;;;;3.33;2.10;;;;;;;;;;5092279;28;20252;-54
2022/05/01 13:21:59;;;;;;;2.13;1.77;;;;;;;;;;5093331;28;20195;-54
2022/05/01 13:24:29;;;;;;;5.20;1.80;;;;;;;;;;5093236;28;20228;-54
2022/05/01 13:26:55;;;;;;;2.97;2.17;;;;;;;;;;5093365;28;20277;-55
2022/05/01 13:29:22;;;;;;;2.43;2.00;;;;;;;;;;5093222;28;20298;-54
2022/05/01 13:31:48;;;;;;;2.87;2.10;;;;;;;;;;5093071;28;20205;-54
2022/05/01 13:34:16;;;;;;;2.37;2.13;;;;;;;;;;5093240;28;20651;-54
2022/05/01 13:36:43;;;;;;;2.97;2.00;;;;;;;;;;5092967;28;20206;-55
2022/05/01 13:39:09;;;;;;;3.13;2.27;;;;;;;;;;5093303;28;20229;-54
2022/05/01 13:47:06;;;;;;;3.30;2.70;;;;;;;;;;5092900;28;20214;-56
2022/05/01 13:49:34;;;;;;;2.60;2.30;;;;;;;;;;5092754;28;20557;-54
2022/05/01 13:52:00;;;;;;;3.23;2.20;;;;;;;;;;5093012;28;20233;-54
2022/05/01 13:54:26;;;;;;;2.23;2.03;;;;;;;;;;5092827;28;20198;-55
2022/05/01 13:56:52;;;;;;;2.60;2.40;;;;;;;;;;5092555;28;20198;-55
2022/05/01 13:59:20;;;;;;;2.77;2.10;;;;;;;;;;5092845;28;20222;-55
2022/05/01 14:01:46;;;;;;;2.73;2.30;;;;;;;;;;5092902;28;20202;-54
2022/05/01 14:04:13;;;;;;;2.77;1.97;;;;;;;;;;5092700;28;20567;-54
2022/05/01 14:06:40;;;;;;;2.87;2.03;;;;;;;;;;5092536;28;20221;-55
2022/05/01 14:09:06;;;;;;;4.43;2.40;;;;;;;;;;5092645;28;20203;-55
2022/05/01 14:11:32;;;;;;;2.43;2.20;;;;;;;;;;5092443;28;20200;-55
2022/05/01 14:13:58;;;;;;;2.40;2.20;;;;;;;;;;5092604;28;20661;-55
2022/05/01 14:16:24;;;;;;;5.27;3.17;;;;;;;;;;5092287;28;20257;-55
2022/05/01 14:18:51;;;;;;;5.03;2.43;;;;;;;;;;5092259;28;20691;-55
2022/05/01 14:21:18;;;;;;;4.80;2.67;;;;;;;;;;5092391;28;20289;-55
2022/05/01 14:23:45;;;;;;;3.00;2.70;;;;;;;;;;5092149;28;20206;-55
2022/05/01 14:26:12;;;;;;;3.97;2.63;;;;;;;;;;5092341;28;20233;-55
2022/05/01 14:28:38;;;;;;;2.87;2.20;;;;;;;;;;5092065;28;20187;-55
2022/05/01 14:31:07;;;;;;;5.50;2.70;;;;;;;;;;5091778;28;20235;-54
2022/05/01 14:33:41;;;;;;;2.63;2.33;;;;;;;;;;5092019;28;20194;-54
2022/05/01 14:36:08;;;;;;;2.80;2.60;;;;;;;;;;5092180;28;20194;-56
2022/05/01 14:38:37;;;;;;;3.37;2.40;;;;;;;;;;5091918;28;20222;-55
2022/05/01 14:41:05;;;;;;;3.43;2.93;;;;;;;;;;5092169;28;20210;-55
2022/05/01 14:43:34;;;;;;;2.93;2.50;;;;;;;;;;5091928;28;20292;-55
2022/05/01 14:46:05;;;;;;;4.93;2.60;;;;;;;;;;5092122;28;20205;-56
2022/05/01 14:48:37;;;;;;;3.97;2.37;;;;;;;;;;5092212;28;20212;-55
2022/05/01 14:51:03;;;;;;;3.23;2.70;;;;;;;;;;5092039;28;20194;-55
2022/05/01 14:53:30;;;;;;;2.70;2.30;;;;;;;;;;5091950;28;20197;-55
2022/05/01 14:55:58;;;;;;;5.97;2.50;;;;;;;;;;5091936;28;20531;-55
2022/05/01 15:06:43;;;;;;;2.97;2.50;;;;;;;;;;5091775;28;20251;-55
2022/05/01 15:09:09;;;;;;;5.47;3.20;;;;;;;;;;5091799;28;20258;-56
2022/05/01 15:11:38;;;;;;;3.77;2.70;;;;;;;;;;5091716;28;20197;-55
2022/05/01 15:14:05;;;;;;;4.03;2.53;;;;;;;;;;5091766;28;20203;-55
2022/05/01 15:16:37;;;;;;;3.27;2.67;;;;;;;;;;5091630;28;20606;-56
2022/05/01 15:19:08;;;;;;;3.27;2.63;;;;;;;;;;5091702;28;20302;-55
2022/05/01 15:24:24;;;;;;;3.43;2.40;;;;;;;;;;5091559;28;20297;-55
2022/05/01 15:26:52;;;;;;;4.27;2.80;;;;;;;;;;5091339;28;20835;-55
2022/05/01 15:29:21;;;;;;;5.20;2.93;;;;;;;;;;5091470;28;20295;-55
2022/05/01 15:31:48;;;;;;;3.23;2.50;;;;;;;;;;5091413;28;20220;-55
2022/05/01 15:34:14;;;;;;;4.77;3.03;;;;;;;;;;5091635;28;20195;-55
2022/05/01 15:36:42;;;;;;;3.47;3.17;;;;;;;;;;5091245;28;20203;-53
2022/05/01 15:39:15;;;;;;;5.20;2.90;;;;;;;;;;5091379;28;20195;-54